createdAt,value
2018-08-04T00:01:13.212Z,22.47
2018-08-04T00:03:44.677Z,22.41
2018-08-04T00:06:14.696Z,22.36
2018-08-04T00:08:46.641Z,22.29
2018-08-04T00:11:17.585Z,22.19
2018-08-04T00:13:48.945Z,22.18
2018-08-04T00:16:19.881Z,22.10
2018-08-04T00:18:50.966Z,22.05
2018-08-04T00:21:20.972Z,22.03
2018-08-04T00:23:53.000Z,22.07
2018-08-04T00:26:23.117Z,22.09
2018-08-04T00:28:53.848Z,22.04
2018-08-04T00:31:24.082Z,22.00
2018-08-04T00:33:54.501Z,21.99
2018-08-04T00:36:27.237Z,21.96
2018-08-04T00:38:57.449Z,21.89
2018-08-04T00:41:28.280Z,21.85
2018-08-04T00:44:01.481Z,21.82
2018-08-04T00:46:32.313Z,21.79
2018-08-04T00:49:02.277Z,21.79
2018-08-04T00:51:32.438Z,21.85
2018-08-04T00:54:02.258Z,21.92
2018-08-04T00:56:32.433Z,21.90
2018-08-04T00:59:02.290Z,21.90
2018-08-04T01:01:32.694Z,21.94
2018-08-04T01:04:02.580Z,21.97
2018-08-04T01:06:32.733Z,21.93
2018-08-04T01:09:02.628Z,21.88
2018-08-04T01:11:32.627Z,21.88
2018-08-04T01:14:02.510Z,21.88
2018-08-04T01:16:32.785Z,21.83
2018-08-04T01:19:02.663Z,21.82
2018-08-04T01:21:32.769Z,21.84
2018-08-04T01:24:02.686Z,21.76
2018-08-04T01:26:32.561Z,21.75
2018-08-04T01:29:02.445Z,21.66
2018-08-04T01:31:34.915Z,21.64
2018-08-04T01:34:04.831Z,21.56
2018-08-04T01:36:34.699Z,21.51
2018-08-04T01:39:05.981Z,21.54
2018-08-04T01:41:36.247Z,21.59
2018-08-04T01:44:06.171Z,21.66
2018-08-04T01:46:36.012Z,21.65
2018-08-04T01:49:06.613Z,21.60
2018-08-04T01:51:37.005Z,21.44
2018-08-04T01:54:06.957Z,21.30
2018-08-04T01:56:37.680Z,21.23
2018-08-04T01:59:07.808Z,21.18
2018-08-04T02:01:38.233Z,21.24
2018-08-04T02:04:08.143Z,21.30
2018-08-04T02:06:38.692Z,21.35
2018-08-04T02:09:10.118Z,21.39
2018-08-04T02:11:40.080Z,21.38
2018-08-04T02:14:11.667Z,21.30
2018-08-04T02:16:42.169Z,21.22
2018-08-04T02:19:12.906Z,21.24
2018-08-04T02:21:43.193Z,21.20
2018-08-04T02:24:13.121Z,21.21
2018-08-04T02:26:43.034Z,21.29
2018-08-04T02:29:13.052Z,21.29
2018-08-04T02:31:46.631Z,21.27
2018-08-04T02:34:17.141Z,21.20
2018-08-04T02:36:47.303Z,21.12
2018-08-04T02:39:17.350Z,21.07
2018-08-04T02:41:48.505Z,20.98
2018-08-04T02:44:18.693Z,20.99
2018-08-04T02:46:48.593Z,20.94
2018-08-04T02:49:18.574Z,21.01
2018-08-04T02:51:48.423Z,20.99
2018-08-04T02:54:18.381Z,21.00
2018-08-04T02:56:48.465Z,20.95
2018-08-04T02:59:18.399Z,20.98
2018-08-04T03:01:48.647Z,21.00
2018-08-04T03:04:26.661Z,21.01
2018-08-04T03:06:56.478Z,21.00
2018-08-04T03:09:26.342Z,20.99
2018-08-04T03:11:58.086Z,21.01
2018-08-04T03:14:32.206Z,20.97
2018-08-04T03:17:02.114Z,20.88
2018-08-04T03:19:32.383Z,20.81
2018-08-04T03:22:02.478Z,20.70
2018-08-04T03:24:32.292Z,20.66
2018-08-04T03:27:02.098Z,20.60
2018-08-04T03:29:43.459Z,20.56
2018-08-04T03:32:13.048Z,20.56
2018-08-04T03:34:42.671Z,20.53
2018-08-04T03:37:12.661Z,20.49
2018-08-04T03:39:42.403Z,20.43
2018-08-04T03:42:12.383Z,20.39
2018-08-04T03:44:41.999Z,20.35
2018-08-04T03:47:13.034Z,20.33
2018-08-04T03:49:42.701Z,20.32
2018-08-04T03:52:12.849Z,20.38
2018-08-04T03:54:42.553Z,20.45
2018-08-04T03:57:13.474Z,20.46
2018-08-04T03:59:43.244Z,20.45
2018-08-04T04:02:13.040Z,20.38
2018-08-04T04:04:42.775Z,20.39
2018-08-04T04:07:12.486Z,20.29
2018-08-04T04:09:42.317Z,20.23
2018-08-04T04:12:12.410Z,20.18
2018-08-04T04:14:42.167Z,20.17
2018-08-04T04:17:12.378Z,20.14
2018-08-04T04:19:42.027Z,20.15
2018-08-04T04:22:12.015Z,20.11
2018-08-04T04:24:41.819Z,20.14
2018-08-04T04:27:11.521Z,20.18
2018-08-04T04:29:41.316Z,20.18
2018-08-04T04:32:12.016Z,20.16
2018-08-04T04:34:41.673Z,20.21
2018-08-04T04:37:11.464Z,20.22
2018-08-04T04:39:41.776Z,20.16
2018-08-04T04:42:11.486Z,20.25
2018-08-04T04:44:41.296Z,20.27
2018-08-04T04:47:11.144Z,20.28
2018-08-04T04:49:41.134Z,20.31
2018-08-04T04:52:11.690Z,20.38
2018-08-04T04:54:42.031Z,20.37
2018-08-04T04:57:12.954Z,20.41
2018-08-04T04:59:42.888Z,20.45
2018-08-04T05:02:12.621Z,20.55
2018-08-04T05:04:42.802Z,20.64
2018-08-04T05:07:12.532Z,20.74
2018-08-04T05:09:43.760Z,20.87
2018-08-04T05:12:13.911Z,20.93
2018-08-04T05:14:43.689Z,20.97
2018-08-04T05:17:13.809Z,21.01
2018-08-04T05:19:43.896Z,21.01
2018-08-04T05:22:13.770Z,21.06
2018-08-04T05:24:43.882Z,21.07
2018-08-04T05:27:13.611Z,21.08
2018-08-04T05:29:43.563Z,21.15
2018-08-04T05:32:13.914Z,21.25
2018-08-04T05:34:45.679Z,21.36
2018-08-04T05:37:15.414Z,21.44
2018-08-04T05:39:45.064Z,21.52
2018-08-04T05:42:15.164Z,21.58
2018-08-04T05:44:45.348Z,21.71
2018-08-04T05:47:15.379Z,21.83
2018-08-04T05:49:45.227Z,22.01
2018-08-04T05:52:14.987Z,22.14
2018-08-04T05:54:44.710Z,22.26
2018-08-04T05:57:14.629Z,22.36
2018-08-04T05:59:45.887Z,22.42
2018-08-04T06:02:16.700Z,22.51
2018-08-04T06:04:46.608Z,22.62
2018-08-04T06:07:19.906Z,22.74
2018-08-04T06:09:49.620Z,22.89
2018-08-04T06:12:19.388Z,22.98
2018-08-04T06:14:49.145Z,23.09
2018-08-04T06:17:19.010Z,23.14
2018-08-04T06:19:48.761Z,23.26
2018-08-04T06:22:19.807Z,23.34
2018-08-04T06:24:49.990Z,23.48
2018-08-04T06:27:19.747Z,23.59
2018-08-04T06:29:49.478Z,23.70
2018-08-04T06:32:19.476Z,23.85
2018-08-04T06:34:49.182Z,24.03
2018-08-04T06:37:19.878Z,24.25
2018-08-04T06:39:49.777Z,24.45
2018-08-04T06:42:20.272Z,24.66
2018-08-04T06:44:49.989Z,24.81
2018-08-04T06:47:19.756Z,24.96
2018-08-04T06:49:53.989Z,25.08
2018-08-04T06:52:23.633Z,25.20
2018-08-04T06:54:53.325Z,25.24
2018-08-04T06:57:23.022Z,25.54
2018-08-04T06:59:53.015Z,25.70
2018-08-04T07:02:23.069Z,25.87
2018-08-04T07:04:52.866Z,26.06
2018-08-04T07:07:22.687Z,26.34
2018-08-04T07:09:52.906Z,26.41
2018-08-04T07:12:22.616Z,26.52
2018-08-04T07:14:52.642Z,26.68
2018-08-04T07:17:22.482Z,26.79
2018-08-04T07:19:52.361Z,26.90
2018-08-04T07:22:22.823Z,27.03
2018-08-04T07:24:53.708Z,27.16
2018-08-04T07:27:24.709Z,27.20
2018-08-04T07:29:55.523Z,27.36
2018-08-04T07:32:25.351Z,27.51
2018-08-04T07:34:55.123Z,27.76
2018-08-04T07:37:25.141Z,27.86
2018-08-04T07:39:54.967Z,27.85
2018-08-04T07:42:25.411Z,28.06
2018-08-04T07:44:55.599Z,28.28
2018-08-04T07:47:25.345Z,28.40
2018-08-04T07:49:55.547Z,28.68
2018-08-04T07:52:27.127Z,28.79
2018-08-04T07:54:57.075Z,28.85
2018-08-04T07:57:26.772Z,28.96
2018-08-04T07:59:56.768Z,29.09
2018-08-04T08:02:29.047Z,29.20
2018-08-04T08:04:59.521Z,29.43
2018-08-04T08:07:29.887Z,29.56
2018-08-04T08:09:59.808Z,29.68
2018-08-04T08:12:29.588Z,29.72
2018-08-04T08:14:59.643Z,29.84
2018-08-04T08:17:29.920Z,30.03
2018-08-04T08:19:59.750Z,30.20
2018-08-04T08:22:44.705Z,30.24
2018-08-04T08:25:14.755Z,30.53
2018-08-04T08:27:45.048Z,31.09
2018-08-04T08:30:16.511Z,31.78
2018-08-04T08:32:47.257Z,32.23
2018-08-04T08:35:17.840Z,32.95
2018-08-04T08:37:47.903Z,33.60
2018-08-04T08:40:18.766Z,33.83
2018-08-04T08:42:48.774Z,34.36
2018-08-04T08:45:19.794Z,34.50
2018-08-04T08:47:50.941Z,35.02
2018-08-04T08:50:22.892Z,34.80
2018-08-04T08:52:58.077Z,35.20
2018-08-04T08:55:28.651Z,36.07
2018-08-04T08:57:58.959Z,36.04
2018-08-04T09:00:34.624Z,36.55
2018-08-04T09:03:04.412Z,36.63
2018-08-04T09:05:34.379Z,36.65
2018-08-04T09:08:04.126Z,36.98
2018-08-04T09:10:34.118Z,37.06
2018-08-04T09:13:03.813Z,37.42
2018-08-04T09:15:34.210Z,37.55
2018-08-04T09:18:03.871Z,37.98
2018-08-04T09:20:34.462Z,38.28
2018-08-04T09:23:04.219Z,38.48
2018-08-04T09:25:35.196Z,38.01
2018-08-04T09:28:04.913Z,38.58
2018-08-04T09:30:34.724Z,38.87
2018-08-04T09:36:02.980Z,39.68
2018-08-04T09:38:33.713Z,40.19
2018-08-04T09:41:03.566Z,39.47
2018-08-04T09:43:33.408Z,39.91
2018-08-04T09:46:10.809Z,40.17
2018-08-04T09:48:40.721Z,39.11
2018-08-04T09:51:11.117Z,39.82
2018-08-04T09:53:41.409Z,40.40
2018-08-04T09:56:15.964Z,41.25
2018-08-04T09:58:45.647Z,40.93
2018-08-04T10:01:38.167Z,40.00
2018-08-04T10:04:08.577Z,40.64
2018-08-04T10:06:38.682Z,40.87
2018-08-04T10:09:12.435Z,41.33
2018-08-04T10:11:42.931Z,40.66
2018-08-04T10:14:12.710Z,40.19
2018-08-04T10:16:44.055Z,40.81
2018-08-04T10:19:15.734Z,41.09
2018-08-04T10:21:45.927Z,40.69
2018-08-04T10:24:15.679Z,40.54
2018-08-04T10:26:45.468Z,39.89
2018-08-04T10:29:17.308Z,38.33
2018-08-04T10:31:47.418Z,37.64
2018-08-04T10:34:17.148Z,37.24
2018-08-04T10:36:48.242Z,37.05
2018-08-04T10:39:18.095Z,36.65
2018-08-04T10:41:49.076Z,36.54
2018-08-04T10:44:18.777Z,36.36
2018-08-04T10:46:48.496Z,35.97
2018-08-04T10:49:18.510Z,36.36
2018-08-04T10:51:56.647Z,36.42
2018-08-04T10:54:26.883Z,36.58
2018-08-04T10:57:25.733Z,36.52
2018-08-04T11:06:16.118Z,36.13
2018-08-04T11:08:45.984Z,35.68
2018-08-04T11:11:15.782Z,35.93
2018-08-04T11:13:46.094Z,35.86
2018-08-04T11:16:17.567Z,36.05
2018-08-04T11:18:47.334Z,36.35
2018-08-04T11:21:19.349Z,36.59
2018-08-04T11:23:49.026Z,36.44
2018-08-04T11:26:19.624Z,36.32
2018-08-04T11:28:49.263Z,36.49
2018-08-04T11:31:19.186Z,36.29
2018-08-04T11:33:49.088Z,36.23
2018-08-04T11:39:47.194Z,36.44
2018-08-04T11:45:30.624Z,36.45
2018-08-04T11:48:00.756Z,36.40
2018-08-04T11:50:55.880Z,36.46
2018-08-04T11:53:28.734Z,36.51
2018-08-04T11:55:58.770Z,36.31
2018-08-04T11:58:38.616Z,36.12
2018-08-04T12:01:09.887Z,36.55
2018-08-04T12:03:40.861Z,36.78
2018-08-04T12:06:15.689Z,36.56
2018-08-04T12:08:45.801Z,36.25
2018-08-04T12:11:15.927Z,36.09
2018-08-04T12:13:46.338Z,35.02
2018-08-04T12:16:22.992Z,35.01
2018-08-04T12:18:53.981Z,34.98
2018-08-04T12:21:25.202Z,34.96
2018-08-04T12:23:56.708Z,35.35
2018-08-04T12:26:28.353Z,35.52
2018-08-04T12:28:58.623Z,35.64
2018-08-04T12:31:28.581Z,35.78
2018-08-04T12:34:06.912Z,35.93
2018-08-04T12:36:37.046Z,36.06
2018-08-04T12:39:09.787Z,35.84
2018-08-04T12:41:39.892Z,35.86
2018-08-04T12:44:10.423Z,36.02
2018-08-04T12:46:41.360Z,36.35
2018-08-04T12:49:11.505Z,36.37
2018-08-04T12:51:41.526Z,36.33
2018-08-04T12:54:11.862Z,36.11
2018-08-04T12:56:43.909Z,36.37
2018-08-04T12:59:13.723Z,36.16
2018-08-04T13:01:43.601Z,36.86
2018-08-04T13:04:13.789Z,37.43
2018-08-04T13:06:43.554Z,37.50
2018-08-04T13:09:13.272Z,37.08
2018-08-04T13:11:43.211Z,36.63
2018-08-04T13:14:12.947Z,36.72
2018-08-04T13:16:43.632Z,37.54
2018-08-04T13:19:13.495Z,38.54
2018-08-04T13:21:44.189Z,38.98
2018-08-04T13:24:14.047Z,38.91
2018-08-04T13:26:43.831Z,39.49
2018-08-04T13:32:36.152Z,42.07
2018-08-04T13:35:06.623Z,41.13
2018-08-04T13:37:37.583Z,40.80
2018-08-04T13:40:40.454Z,40.03
2018-08-04T13:43:12.109Z,40.44
2018-08-04T13:45:42.157Z,42.88
2018-08-04T13:48:11.832Z,44.07
2018-08-04T13:50:41.671Z,45.13
2018-08-04T13:53:11.655Z,44.92
2018-08-04T13:55:41.452Z,44.88
2018-08-04T13:58:11.311Z,42.83
2018-08-04T14:01:01.954Z,40.40
2018-08-04T14:03:32.079Z,39.73
2018-08-04T14:06:03.110Z,40.64
2018-08-04T14:08:32.778Z,39.91
2018-08-04T14:13:50.108Z,40.98
2018-08-04T14:16:24.096Z,39.73
2018-08-04T14:19:03.237Z,40.40
2018-08-04T14:21:36.232Z,40.34
2018-08-04T14:24:07.062Z,39.11
2018-08-04T14:26:55.759Z,37.11
2018-08-04T14:29:27.998Z,36.19
2018-08-04T14:34:32.776Z,40.11
2018-08-04T14:37:37.203Z,41.31
2018-08-04T14:40:07.480Z,43.32
2018-08-04T14:42:37.712Z,43.80
2018-08-04T14:45:31.111Z,44.12
2018-08-04T14:48:00.824Z,44.61
2018-08-04T14:50:31.202Z,44.66
2018-08-04T14:53:01.657Z,45.06
2018-08-04T14:55:33.885Z,45.51
2018-08-04T15:01:34.624Z,45.19
2018-08-04T15:04:15.426Z,45.26
2018-08-04T15:06:45.751Z,44.65
2018-08-04T15:12:19.224Z,43.64
2018-08-04T15:18:00.497Z,43.58
2018-08-04T15:20:30.673Z,44.44
2018-08-04T15:23:00.515Z,43.37
2018-08-04T15:25:30.430Z,44.17
2018-08-04T15:28:00.298Z,44.12
2018-08-04T15:30:30.600Z,43.73
2018-08-04T15:33:19.554Z,43.51
2018-08-04T15:35:51.481Z,43.81
2018-08-04T15:42:09.683Z,43.64
2018-08-04T15:45:03.336Z,43.23
2018-08-04T15:50:40.570Z,42.80
2018-08-04T15:53:14.673Z,42.92
2018-08-04T15:55:45.895Z,43.01
2018-08-04T15:58:15.812Z,42.44
2018-08-04T16:00:48.111Z,41.31
2018-08-04T16:03:17.909Z,40.75
2018-08-04T16:05:48.018Z,39.15
2018-08-04T16:08:18.104Z,37.30
2018-08-04T16:13:43.469Z,35.52
2018-08-04T16:16:13.500Z,35.13
2018-08-04T16:18:43.241Z,34.70
2018-08-04T16:21:13.015Z,34.43
2018-08-04T16:23:43.020Z,34.10
2018-08-04T16:26:12.759Z,33.82
2018-08-04T16:28:43.333Z,33.77
2018-08-04T16:31:14.585Z,33.91
2018-08-04T16:33:44.428Z,34.32
2018-08-04T16:36:14.209Z,34.66
2018-08-04T16:38:52.363Z,34.68
2018-08-04T16:41:23.284Z,34.56
2018-08-04T16:46:33.903Z,34.59
2018-08-04T16:49:13.392Z,34.47
2018-08-04T16:54:42.435Z,34.30
2018-08-04T16:57:22.988Z,34.22
2018-08-04T17:00:09.187Z,33.91
2018-08-04T17:02:55.240Z,33.80
2018-08-04T17:05:45.984Z,33.66
2018-08-04T17:08:44.294Z,33.55
2018-08-04T17:11:33.692Z,33.43
2018-08-04T17:14:09.469Z,33.36
2018-08-04T17:16:40.604Z,33.32
2018-08-04T17:19:12.348Z,33.30
2018-08-04T17:22:00.989Z,33.16
2018-08-04T17:24:48.566Z,33.04
2018-08-04T17:27:19.425Z,33.08
2018-08-04T17:33:12.332Z,32.87
2018-08-04T17:38:56.554Z,32.55
2018-08-04T17:46:08.149Z,32.41
2018-08-04T17:48:39.345Z,32.30
2018-08-04T17:51:10.203Z,32.13
2018-08-04T17:53:40.180Z,32.00
2018-08-04T17:56:18.887Z,31.90
2018-08-04T17:59:01.537Z,31.88
2018-08-04T18:01:31.501Z,31.86
2018-08-04T18:04:11.668Z,31.79
2018-08-04T18:06:42.268Z,31.78
2018-08-04T18:09:26.050Z,31.68
2018-08-04T18:12:00.197Z,31.61
2018-08-04T18:14:41.673Z,31.58
2018-08-04T18:17:13.187Z,31.46
2018-08-04T18:19:46.665Z,31.35
2018-08-04T18:22:34.625Z,31.29
2018-08-04T18:25:05.194Z,31.15
